Data for 10/25/2008

Time Sea-Level Adjusted Pressure Absolute Pressure Temperature Relative Humidity Dew Point   
(mb) (inHg) (mb) (inHg) (C) (F) (%) (C) (F)
00:05 1019 30.09 848 25.04 8.7 47.6 30 -7.8 17.9
00:10 1019 30.09 848 25.04 8.7 47.7 30 -7.9 17.8
00:15 1019 30.09 848 25.04 8.8 47.8 30 -8 17.7
00:20 1019 30.09 848 25.04 9 48.2 29 -7.9 17.8
00:25 1019 30.09 848 25.04 9.1 48.4 29 -8 17.7
00:30 1019 30.09 848 25.04 9.1 48.4 29 -7.9 17.8
00:35 1019 30.09 848 25.04 9.2 48.6 29 -8 17.5
00:40 1019 30.09 848 25.04 9.3 48.8 28 -8.1 17.4
00:45 1019 30.09 848 25.04 9.4 48.9 28 -8.4 16.9
00:50 1019 30.09 848 25.04 9.6 49.2 28 -8.3 17.1
00:55 1019 30.09 848 25.04 9.5 49.2 28 -8.1 17.4
01:00 1019 30.09 848 25.04 9.6 49.2 28 -8.1 17.4
01:05 1019 30.09 848 25.04 9.5 49 29 -7.6 18.3
01:10 1019 30.09 848 25.04 9 48.3 30 -7.8 18
01:15 1019 30.09 848 25.04 9 48.2 30 -7.6 18.3
01:20 1019 30.09 848 25.04 9 48.1 30 -7.7 18.1
01:25 1019 30.09 848 25.04 9.1 48.3 30 -7.7 18.1
01:30 1019 30.09 848 25.04 9.1 48.3 30 -7.7 18.1
01:35 1019 30.09 848 25.04 9.1 48.3 29 -7.9 17.7
01:40 1019 30.09 848 25.04 9.1 48.4 30 -7.7 18.1
01:45 1019 30.09 848 25.04 9.1 48.3 29 -7.9 17.7
01:50 1018 30.06 848 25.04 9.2 48.5 29 -8.2 17.3
01:55 1018 30.06 848 25.04 9.4 48.9 28 -8.1 17.5
02:00 1018 30.06 847 25.01 9.6 49.3 28 -7.8 18
02:05 1018 30.06 847 25.01 9.7 49.5 28 -7.8 18
02:10 1018 30.06 847 25.01 9.7 49.5 29 -7.6 18.3
02:15 1018 30.06 847 25.01 9.5 49 29 -7.5 18.5
02:20 1018 30.06 847 25.01 9.2 48.5 30 -7.6 18.4
02:25 1018 30.06 847 25.01 9.1 48.3 30 -7.4 18.6
02:30 1018 30.06 847 25.01 8.9 48 31 -7.3 18.8
02:35 1018 30.06 848 25.04 8.7 47.7 32 -7.3 18.9
02:40 1019 30.09 848 25.04 8.7 47.7 31 -7.4 18.7
02:45 1019 30.09 848 25.04 8.6 47.6 32 -7.1 19.1
02:50 1019 30.09 848 25.04 8.6 47.5 32 -7.2 19.1
02:55 1019 30.09 848 25.04 8.6 47.5 32 -7.2 19.1
03:00 1019 30.09 848 25.04 8.7 47.7 32 -7 19.4
03:05 1019 30.09 848 25.04 8.8 47.8 32 -7.1 19.2
03:10 1019 30.09 848 25.04 9.2 48.5 31 -6.9 19.5
03:15 1019 30.09 848 25.04 9.4 48.9 30 -7.3 18.9
03:20 1019 30.09 848 25.04 10.1 50.2 29 -7.2 19
03:25 1019 30.09 848 25.04 10.6 51.1 29 -6.7 19.9
03:30 1019 30.09 848 25.04 10.5 50.9 30 -6.5 20.3
03:35 1018 30.06 848 25.04 10.2 50.4 30 -6.5 20.3
03:40 1018 30.06 848 25.04 10.1 50.1 31 -6.4 20.5
03:45 1018 30.06 848 25.04 9.9 49.9 31 -6.3 20.6
03:50 1018 30.06 847 25.01 9.9 49.9 32 -6.2 20.9
03:55 1018 30.06 847 25.01 9.7 49.5 32 -6 21.2
04:00 1018 30.06 847 25.01 9.7 49.4 34 -5.6 21.9
04:05 1018 30.06 847 25.01 10.7 51.3 31 -5.7 21.8
04:10 1018 30.06 847 25.01 11.6 52.9 30 -5.4 22.3
04:15 1018 30.06 847 25.01 11.6 52.8 31 -5 23
04:20 1018 30.06 847 25.01 11.3 52.3 31 -5.2 22.6
04:25 1018 30.06 847 25.01 11.3 52.3 30 -5.4 22.2
04:30 1018 30.06 847 25.01 11.5 52.8 30 -5.2 22.6
04:35 1018 30.06 847 25.01 11.5 52.7 32 -4.7 23.6
04:40 1018 30.06 847 25.01 11.2 52.2 33 -4.4 24.1
04:45 1018 30.06 847 25.01 11 51.8 33 -4.5 23.9
04:50 1018 30.06 847 25.01 10.9 51.6 33 -4.5 23.9
04:55 1018 30.06 847 25.01 11.1 51.9 33 -4.4 24.1
05:00 1018 30.06 847 25.01 11.4 52.5 32 -4.7 23.5
05:05 1018 30.06 847 25.01 11.6 52.9 32 -4.5 23.9
05:10 1018 30.06 847 25.01 11.5 52.8 33 -4 24.8
05:15 1018 30.06 847 25.01 11.3 52.3 34 -4 24.7
05:20 1017 30.03 847 25.01 11.7 53.1 33 -4.1 24.7
05:25 1017 30.03 847 25.01 11.9 53.4 33 -3.7 25.4
05:30 1017 30.03 847 25.01 11.7 53.1 34 -3.7 25.3
05:35 1017 30.03 847 25.01 11.5 52.7 35 -3.5 25.7
05:40 1017 30.03 847 25.01 11.5 52.6 34 -3.6 25.4
05:45 1017 30.03 847 25.01 11.6 52.9 34 -3.8 25.2
05:50 1017 30.03 847 25.01 11.8 53.2 34 -3.6 25.6
05:55 1017 30.03 846 24.98 11.6 52.9 35 -3.3 26.1
06:00 1017 30.03 846 24.98 11.5 52.7 35 -3.3 26.1
06:05 1017 30.03 847 25.01 11.6 53 35 -3.2 26.3
06:10 1017 30.03 847 25.01 11.7 53.1 36 -2.9 26.8
06:15 1017 30.03 846 24.98 11.5 52.6 37 -2.8 26.9
06:20 1017 30.03 846 24.98 11.4 52.5 37 -2.6 27.3
06:25 1017 30.03 846 24.98 11.5 52.7 37 -2.5 27.5
06:30 1017 30.03 846 24.98 11.5 52.7 38 -2.2 28.1
06:35 1017 30.03 846 24.98 11.6 52.8 38 -2.1 28.2
06:40 1017 30.03 846 24.98 11.7 53.1 38 -1.9 28.5
06:45 1017 30.03 846 24.98 11.8 53.2 39 -1.8 28.8
06:50 1017 30.03 846 24.98 12 53.5 38 -1.8 28.8
06:55 1017 30.03 846 24.98 12.1 53.7 38 -1.7 29
07:00 1017 30.03 846 24.98 12.1 53.8 39 -1.4 29.5
07:05 1017 30.03 846 24.98 12 53.7 39 -1.3 29.6
07:10 1017 30.03 846 24.98 12 53.5 40 -1.1 30
07:15 1017 30.03 846 24.98 11.9 53.4 40 -1.3 29.6
07:20 1017 30.03 846 24.98 11.9 53.5 39 -1.4 29.4
07:25 1017 30.03 846 24.98 12.1 53.8 39 -1.4 29.6
07:30 1017 30.03 846 24.98 12.3 54.1 39 -1.2 29.8
07:35 1017 30.03 846 24.98 12.3 54.2 39 -1.2 29.8
07:40 1017 30.03 846 24.98 12.4 54.2 39 -1.1 30.1
07:45 1017 30.03 846 24.98 12.5 54.4 39 -1 30.1
07:50 1017 30.03 846 24.98 12.5 54.5 39 -1.1 30
07:55 1017 30.03 846 24.98 12.5 54.5 40 -0.8 30.5
08:00 1017 30.03 846 24.98 12.5 54.6 39 -1 30.2
08:05 1017 30.03 846 24.98 12.8 55.1 39 -0.9 30.4
08:10 1017 30.03 846 24.98 12.8 55.1 39 -0.9 30.4
08:15 1017 30.03 847 25.01 12.9 55.2 39 -0.8 30.5
08:20 1017 30.03 847 25.01 13 55.3 39 -0.6 30.8
08:25 1017 30.03 847 25.01 12.9 55.2 39 -0.6 30.9
08:30 1018 30.06 847 25.01 12.9 55.2 40 -0.5 31.1
08:35 1018 30.06 847 25.01 12.9 55.2 40 -0.4 31.4
08:40 1018 30.06 847 25.01 12.7 54.9 40 -0.4 31.2
08:45 1018 30.06 847 25.01 12.7 54.8 39 -0.7 30.7
08:50 1018 30.06 847 25.01 12.8 55 39 -0.8 30.6
08:55 1018 30.06 847 25.01 12.8 55.1 38 -0.9 30.4
09:00 1018 30.06 847 25.01 12.9 55.3 38 -0.9 30.3
09:05 1018 30.06 847 25.01 13.1 55.5 39 -0.7 30.8
09:10 1018 30.06 847 25.01 12.9 55.3 39 -0.7 30.8
09:15 1018 30.06 847 25.01 13 55.3 39 -0.6 31
09:20 1018 30.06 847 25.01 13 55.4 39 -0.5 31.2
09:25 1018 30.06 847 25.01 12.9 55.1 40 -0.3 31.5
09:30 1018 30.06 847 25.01 12.5 54.5 41 -0.3 31.5
09:35 1018 30.06 848 25.04 12.2 54 41 -0.4 31.2
09:40 1019 30.09 848 25.04 12.2 53.9 42 -0.4 31.3
09:45 1019 30.09 848 25.04 12.1 53.7 43 -0.2 31.7
09:50 1019 30.09 848 25.04 11.8 53.2 44 -0.1 31.7
09:55 1019 30.09 848 25.04 11.4 52.5 44 -0.2 31.6
10:00 1019 30.09 848 25.04 11.3 52.3 45 -0.3 31.5
10:05 1019 30.09 848 25.04 11.2 52.1 45 -0.2 31.6
10:10 1019 30.09 848 25.04 11.2 52.1 45 -0.3 31.5
10:15 1019 30.09 848 25.04 11.2 52.1 45 -0.2 31.6
10:20 1019 30.09 849 25.07 11.2 52.1 45 -0.2 31.7
10:25 1020 30.12 849 25.07 11.2 52.1 45 -0.2 31.6
10:30 1020 30.12 849 25.07 11.1 52.1 46 -0.1 31.9
10:35 1020 30.12 849 25.07 11.1 52.1 46 0.1 32.2
10:40 1020 30.12 849 25.07 11.2 52.2 47 0.4 32.7
10:45 1020 30.12 849 25.07 11.3 52.4 46 0.2 32.4
10:50 1020 30.12 849 25.07 11.7 53 46 0.6 33.1
10:55 1020 30.12 849 25.07 11.9 53.5 45 0.5 32.9
11:00 1020 30.12 849 25.07 12.3 54.1 45 0.6 33.1
11:05 1020 30.12 849 25.07 12.6 54.6 44 0.6 33.1
11:10 1020 30.12 849 25.07 12.8 55 44 0.8 33.5
11:15 1020 30.12 849 25.07 12.8 55.1 44 0.9 33.7
11:20 1020 30.12 849 25.07 12.9 55.3 43 0.8 33.5
11:25 1020 30.12 849 25.07 13.1 55.5 43 0.9 33.7
11:30 1020 30.12 849 25.07 13.2 55.8 43 1 33.8
11:35 1020 30.12 849 25.07 13.3 56 43 1.1 34
11:40 1020 30.12 849 25.07 13.5 56.2 42 1 33.8
11:45 1020 30.12 849 25.07 13.6 56.6 42 1 33.8
11:50 1020 30.12 849 25.07 13.8 56.9 41 0.8 33.4
11:55 1019 30.09 849 25.07 13.9 56.9 40 0.7 33.2
12:00 1019 30.09 848 25.04 13.9 56.9 41 0.9 33.6
12:05 1019 30.09 848 25.04 13.9 57.1 40 0.8 33.4
12:10 1019 30.09 848 25.04 14.1 57.4 40 0.7 33.3
12:15 1019 30.09 848 25.04 14.3 57.7 39 0.7 33.2
12:20 1019 30.09 848 25.04 14.6 58.2 38 0.4 32.7
12:25 1019 30.09 848 25.04 14.6 58.2 38 0.7 33.2
12:30 1019 30.09 848 25.04 14.8 58.6 37 0.5 32.8
12:35 1019 30.09 848 25.04 14.8 58.6 36 0.1 32.2
12:40 1019 30.09 848 25.04 14.9 58.7 36 0.2 32.4
12:45 1019 30.09 848 25.04 14.8 58.6 36 0.1 32.1
12:50 1019 30.09 848 25.04 14.7 58.5 37 0.1 32.2
12:55 1019 30.09 848 25.04 15.1 59.2 37 0.5 32.9
13:00 1019 30.09 848 25.04 15.2 59.4 35 0 32
13:05 1019 30.09 848 25.04 15.4 59.8 34 -0.2 31.6
13:10 1019 30.09 848 25.04 15.4 59.8 32 -1 30.2
13:15 1019 30.09 848 25.04 15.9 60.5 32 -0.9 30.4
13:20 1019 30.09 848 25.04 16.4 61.4 31 -0.6 30.9
13:25 1019 30.09 848 25.04 16.7 62.1 30 -0.8 30.5
13:30 1019 30.09 848 25.04 17.1 62.9 29 -0.8 30.5
13:35 1019 30.09 848 25.04 16.4 61.6 30 -1.1 30
13:40 1019 30.09 848 25.04 16.2 61.2 29 -1.7 28.9
13:45 1019 30.09 848 25.04 16.7 62 23 -4.5 23.8
13:50 1019 30.09 848 25.04 16.8 62.2 21 -5.6 22
13:55 1019 30.09 848 25.04 16 60.8 22 -5.6 21.9
14:00 1019 30.09 848 25.04 16 60.9 20 -6.7 20
14:05 1019 30.09 848 25.04 16 60.8 21 -6.2 20.8
14:10 1019 30.09 848 25.04 16.2 61.1 18 -8 17.5
14:15 1019 30.09 848 25.04 16.4 61.5 18 -7.6 18.4
14:20 1019 30.09 848 25.04 16.5 61.6 18 -8.2 17.3
14:25 1019 30.09 848 25.04 16.6 61.9 17 -8.6 16.5
14:30 1019 30.09 848 25.04 16.7 62 18 -7.8 18
14:35 1019 30.09 848 25.04 16.9 62.4 18 -7.5 18.6
14:40 1019 30.09 848 25.04 16.9 62.5 17 -8.1 17.4
14:45 1019 30.09 848 25.04 17.1 62.8 14 -10.3 13.5
14:50 1019 30.09 848 25.04 16.9 62.5 16 -9 15.8
14:55 1019 30.09 848 25.04 17 62.5 16 -9.3 15.2
15:00 1019 30.09 848 25.04 16.8 62.2 15 -10 14
15:05 1019 30.09 848 25.04 16.6 61.9 15 -9.7 14.6
15:10 1019 30.09 848 25.04 16.5 61.6 15 -10 13.9
15:15 1019 30.09 848 25.04 16.4 61.4 16 -9.5 14.8
15:20 1019 30.09 848 25.04 16.4 61.5 17 -8.8 16.2
15:25 1019 30.09 848 25.04 16.6 61.8 15 -10 14
15:30 1019 30.09 848 25.04 16.6 61.8 15 -10.1 13.9
15:35 1019 30.09 848 25.04 16.5 61.8 15 -9.8 14.4
15:40 1019 30.09 848 25.04 16.6 61.8 14 -11 12.2
15:45 1019 30.09 849 25.07 16.5 61.7 15 -9.9 14.1
15:50 1020 30.12 849 25.07 16.4 61.6 15 -10.4 13.3
15:55 1020 30.12 849 25.07 16.5 61.7 15 -9.8 14.3
16:00 1020 30.12 849 25.07 15.8 60.5 17 -9.4 15.1
16:05 1020 30.12 849 25.07 15.5 59.8 18 -8.8 16.1
16:10 1020 30.12 849 25.07 15.5 59.8 17 -9.1 15.6
16:15 1020 30.12 849 25.07 15.9 60.6 18 -8.6 16.4
16:20 1020 30.12 849 25.07 16.2 61.2 15 -10 13.9
16:25 1020 30.12 849 25.07 16.1 61.1 15 -10.8 12.6
16:30 1020 30.12 849 25.07 16.1 60.9 14 -11.3 11.7
16:35 1020 30.12 849 25.07 16.1 61 15 -10.8 12.5
16:40 1020 30.12 849 25.07 16 60.7 15 -10.9 12.5
16:45 1020 30.12 849 25.07 15.9 60.7 15 -10.9 12.4
16:50 1020 30.12 849 25.07 16 60.7 13 -12.4 9.7
16:55 1020 30.12 849 25.07 15.8 60.4 13 -12.5 9.6
17:00 1020 30.12 849 25.07 15.7 60.3 14 -12 10.4
17:05 1020 30.12 849 25.07 15.7 60.2 13 -12.3 9.8
17:10 1020 30.12 849 25.07 15.4 59.8 13 -12.6 9.3
17:15 1020 30.12 849 25.07 15.3 59.5 13 -12.8 8.9
17:20 1020 30.12 849 25.07 14.9 58.8 14 -12.7 9.1
17:25 1020 30.12 849 25.07 14.7 58.4 14 -12.6 9.3
17:30 1020 30.12 849 25.07 14.6 58.2 14 -12.7 9.2
17:35 1020 30.12 849 25.07 14.6 58.2 13 -13.2 8.2
17:40 1020 30.12 849 25.07 14.6 58.3 14 -12.8 9
17:45 1020 30.12 849 25.07 14.4 57.9 13 -13.4 7.9
17:50 1020 30.12 849 25.07 14.3 57.7 13 -13.5 7.8
17:55 1020 30.12 849 25.07 14.1 57.4 14 -13.4 7.8
18:00 1020 30.12 849 25.07 13.9 57 14 -13.5 7.6
18:05 1020 30.12 850 25.1 13.7 56.6 14 -13.7 7.3
18:10 1020 30.12 850 25.1 13.4 56.1 14 -13.7 7.4
18:15 1021 30.15 850 25.1 13.2 55.8 14 -13.9 7
18:20 1021 30.15 850 25.1 13 55.4 14 -13.9 7
18:25 1021 30.15 850 25.1 12.8 55 14 -13.9 7
18:30 1021 30.15 850 25.1 12.7 54.9 15 -13.6 7.5
18:35 1021 30.15 850 25.1 12.6 54.7 15 -13.5 7.6
18:40 1021 30.15 850 25.1 12.5 54.5 15 -13.5 7.7
18:45 1021 30.15 850 25.1 12.4 54.2 15 -13.4 7.8
18:50 1021 30.15 850 25.1 12.2 53.9 16 -13.2 8.3
18:55 1021 30.15 850 25.1 12 53.6 16 -13.5 7.8
19:00 1021 30.15 850 25.1 12 53.7 15 -13.9 7.1
19:05 1021 30.15 850 25.1 12.1 53.8 15 -13.9 7
19:10 1021 30.15 850 25.1 12.1 53.7 15 -13.5 7.7
19:15 1021 30.15 850 25.1 11.9 53.3 16 -13.5 7.7
19:20 1021 30.15 851 25.13 11.7 53 17 -12.9 8.7
19:25 1021 30.15 851 25.13 11.5 52.6 17 -12.9 8.8
19:30 1022 30.18 851 25.13 11.5 52.6 16 -13.6 7.6
19:35 1022 30.18 851 25.13 11.6 52.8 16 -13.1 8.4
19:40 1022 30.18 851 25.13 11.5 52.6 17 -12.8 8.9
19:45 1022 30.18 851 25.13 11.3 52.3 17 -13.1 8.4
19:50 1022 30.18 851 25.13 11.2 52.2 17 -13.1 8.5
19:55 1022 30.18 852 25.16 11.2 52.1 17 -12.8 9
20:00 1023 30.21 852 25.16 10.9 51.7 19 -11.6 11.1
20:05 1023 30.21 852 25.16 9.9 49.8 22 -10.9 12.4
20:10 1023 30.21 852 25.16 9.2 48.5 22 -11.4 11.4
20:15 1023 30.21 852 25.16 9.1 48.3 23 -11.3 11.7
20:20 1023 30.21 852 25.16 9 48.2 22 -11.7 11
20:25 1023 30.21 852 25.16 8.9 48.1 24 -10.7 12.7
20:30 1023 30.21 852 25.16 8.4 47.1 24 -10.9 12.4
20:35 1023 30.21 852 25.16 8.4 47.1 24 -11 12.1
20:40 1023 30.21 852 25.16 8.3 46.9 25 -10.6 12.9
20:45 1023 30.21 852 25.16 8.8 47.8 22 -11.8 10.8
20:50 1023 30.21 852 25.16 8.2 46.8 25 -10.8 12.5
20:55 1023 30.21 852 25.16 7.9 46.3 23 -11.7 10.9
21:00 1023 30.21 852 25.16 8.2 46.8 23 -11.7 10.9
21:05 1022 30.18 852 25.16 7.9 46.2 27 -10.1 13.8
21:10 1022 30.18 852 25.16 7.3 45.2 25 -11.2 11.8
21:15 1023 30.21 852 25.16 7.5 45.4 26 -10.9 12.5
21:20 1023 30.21 852 25.16 7.3 45.1 26 -11.1 12
21:25 1023 30.21 852 25.16 7.2 44.9 26 -11.1 12.1
21:30 1023 30.21 852 25.16 7.5 45.5 25 -11.2 11.9
21:35 1023 30.21 852 25.16 7.7 45.8 26 -10.9 12.4
21:40 1023 30.21 852 25.16 7.7 45.8 25 -11 12.1
21:45 1023 30.21 853 25.19 7.8 46 25 -11.2 11.8
21:50 1023 30.21 852 25.16 7.7 45.9 26 -10.7 12.8
21:55 1023 30.21 853 25.19 7.6 45.7 26 -10.9 12.4
22:00 1023 30.21 853 25.19 7.5 45.5 25 -11.4 11.5
22:05 1024 30.24 853 25.19 7.5 45.5 26 -10.9 12.5
22:10 1024 30.24 853 25.19 7.3 45.1 24 -12.2 10.1
22:15 1024 30.24 853 25.19 7.5 45.5 24 -11.6 11.1
22:20 1024 30.24 853 25.19 7.4 45.3 24 -11.8 10.7
22:25 1024 30.24 853 25.19 7.2 45 24 -12.2 10
22:30 1024 30.24 853 25.19 7.3 45.1 25 -11.7 11
22:35 1024 30.24 853 25.19 7 44.6 24 -12.3 9.9
22:40 1024 30.24 853 25.19 6.8 44.3 25 -12 10.4
22:45 1024 30.24 853 25.19 6.5 43.7 26 -11.8 10.8
22:50 1024 30.24 853 25.19 6.4 43.5 24 -13 8.7
22:55 1024 30.24 853 25.19 6.8 44.3 22 -13.6 7.6
23:00 1024 30.24 853 25.19 7.4 45.3 22 -12.9 8.8
23:05 1024 30.24 853 25.19 7.2 45 22 -13.3 8.1
23:10 1024 30.24 853 25.19 7.4 45.3 21 -13.6 7.5
23:15 1024 30.24 853 25.19 7.3 45.1 22 -13.2 8.2
23:20 1024 30.24 853 25.19 7 44.5 20 -14.5 5.9
23:25 1024 30.24 853 25.19 7.6 45.7 20 -14.1 6.6
23:30 1024 30.24 854 25.22 7.9 46.3 19 -14.2 6.4
23:35 1024 30.24 854 25.22 7.9 46.3 20 -13.4 7.8
23:40 1025 30.27 854 25.22 7.3 45.2 21 -13.4 7.8
23:45 1025 30.27 854 25.22 7.2 44.9 22 -13.3 8
23:50 1025 30.27 854 25.22 6.8 44.2 23 -13.1 8.4
23:55 1025 30.27 854 25.22 6.5 43.8 23 -13.3 8.1
24:00 1025 30.27 854 25.22 6.7 44.1 22 -13.6 7.5